Leonard, MI (48367)

5:30 PM EST on December 02, 2016 (GMT -0500)
PartsUnknown | | Change Station

Elev 1092 ft 42.87 °N, 83.17 °W | Updated 33 seconds ago

Overcast
Overcast
34.7 °F
Feels Like 31 °F
N
4.0
Wind Variable Wind from NW
Gusts 4.0 mph

Today
High -- | Low -- °F
--% Chance of Precip.
Yesterday
High -- | Low -- °F
Precip. -- in
Pressure 30.11 in
Visibility 10.0 miles
Clouds Overcast 3000 ft
Windchill 31 °F
Dew Point 30 °F
Humidity 82%
Rainfall 0.04 in
Snow Depth Not available.
7:45 AM 4:58 PM
Waxing Crescent, 11% visible
METAR KD95 022214Z AUTO 28012G17KT 10SM OVC030 03/M02 A3011 RMK AO2 T00301017
Pressure 30.11 in
Visibility 10.0 miles
Clouds Overcast 3000 ft
Windchill 31 °F
Dew Point 30 °F
Humidity 82%
Rainfall 0.04 in
Snow Depth Not available.
7:45 AM 4:58 PM
Waxing Crescent, 11% visible
METAR KD95 022214Z AUTO 28012G17KT 10SM OVC030 03/M02 A3011 RMK AO2 T00301017

10-Day Weather Forecast

Almanac

Astronomy

Dec. 02, 2016 Rise Set
Actual Time
Civil Twilight
Nautical Twilight
Astronomical Twilight
Moon
Length of Visible Light
Length of Day
Tomorrow will be .
, % of the Moon is Illuminated

Today's Extremes

State Highs State Lows

Community

WunderPhotos

Upload Photos

1,955,376 photos uploaded!

WunderBlog® & News

Nearby

Air Quality

  Air Quality AQ Index Pollutant
Not available.

Snow Depth

Station Depth Elevation

Earthquake Activity

City Distance Mag. Time & Date
Minimum magnitude displayed is 2.5.

Coastal Water Temperatures

Place Temperature

Stations

Nearby Weather Stations

Station Location Temp. Windchill Dew Point Humidity Wind Precip. Elev Updated Type
                   

Watches & Warnings

There are currently no watches in effect.